createdAt,value
2023-05-13T00:02:02.097Z,12.27
2023-05-13T00:04:29.815Z,11.55
2023-05-13T00:06:58.157Z,11.20
2023-05-13T00:09:25.791Z,11.43
2023-05-13T00:11:54.888Z,13.30
2023-05-13T00:14:24.261Z,10.65
2023-05-13T00:16:52.136Z,12.68
2023-05-13T00:19:19.822Z,10.82
2023-05-13T00:21:47.468Z,10.48
2023-05-13T00:24:15.035Z,10.77
2023-05-13T00:26:43.601Z,11.40
2023-05-13T00:29:12.501Z,10.50
2023-05-13T00:31:40.179Z,12.13
2023-05-13T00:34:07.812Z,9.05
2023-05-13T00:36:35.389Z,9.18
2023-05-13T00:39:03.669Z,9.18
2023-05-13T00:41:31.312Z,13.45
2023-05-13T00:43:59.108Z,9.73
2023-05-13T00:46:32.577Z,10.10
2023-05-13T00:49:01.963Z,12.35
2023-05-13T00:51:29.629Z,13.93
2023-05-13T00:53:59.503Z,12.32
2023-05-13T00:56:28.043Z,14.38
2023-05-13T00:58:55.569Z,12.98
2023-05-13T01:01:39.479Z,11.70
2023-05-13T01:04:15.657Z,13.85
2023-05-13T01:06:53.235Z,10.55
2023-05-13T01:09:29.858Z,9.02
2023-05-13T01:12:03.231Z,8.52
2023-05-13T01:14:38.151Z,11.05
2023-05-13T01:22:03.143Z,8.57
2023-05-13T01:24:56.485Z,7.25
2023-05-13T01:27:24.416Z,7.90
2023-05-13T01:30:17.792Z,8.55
2023-05-13T01:32:48.025Z,9.32
2023-05-13T01:35:18.096Z,7.88
2023-05-13T01:37:51.184Z,7.15
2023-05-13T01:40:44.166Z,8.20
2023-05-13T01:43:13.172Z,8.00
2023-05-13T01:45:40.963Z,7.28
2023-05-13T01:48:09.163Z,8.63
2023-05-13T01:50:46.183Z,7.82
2023-05-13T01:53:15.312Z,9.90
2023-05-13T01:55:43.599Z,9.02
2023-05-13T01:58:11.625Z,9.02
2023-05-13T02:00:40.352Z,7.93
2023-05-13T02:03:08.797Z,7.93
2023-05-13T02:05:37.200Z,7.82
2023-05-13T02:08:08.932Z,9.13
2023-05-13T02:10:40.765Z,9.07
2023-05-13T02:13:08.717Z,8.45
2023-05-13T02:15:37.194Z,8.82
2023-05-13T02:18:06.672Z,7.93
2023-05-13T02:20:34.359Z,9.77
2023-05-13T02:23:01.956Z,8.32
2023-05-13T02:25:31.175Z,8.65
2023-05-13T02:28:01.548Z,8.73
2023-05-13T02:30:30.745Z,10.10
2023-05-13T02:33:01.268Z,9.40
2023-05-13T02:35:30.005Z,7.88
2023-05-13T02:37:59.711Z,8.32
2023-05-13T02:40:29.595Z,8.27
2023-05-13T02:42:59.342Z,8.30
2023-05-13T02:45:45.421Z,8.18
2023-05-13T02:48:13.766Z,8.20
2023-05-13T02:50:44.169Z,8.70
2023-05-13T02:53:13.282Z,8.88
2023-05-13T02:55:47.183Z,7.63
2023-05-13T02:58:15.306Z,9.18
2023-05-13T03:00:47.193Z,9.20
2023-05-13T03:03:18.355Z,8.88
2023-05-13T03:05:46.246Z,8.13
2023-05-13T03:08:13.857Z,8.43
2023-05-13T03:10:41.514Z,8.80
2023-05-13T03:13:09.697Z,7.65
2023-05-13T03:15:37.632Z,8.02
2023-05-13T03:18:06.338Z,9.13
2023-05-13T03:20:35.273Z,7.55
2023-05-13T03:23:04.648Z,8.55
2023-05-13T03:25:33.693Z,8.85
2023-05-13T03:28:01.578Z,9.02
2023-05-13T03:30:57.040Z,9.68
2023-05-13T03:35:55.917Z,7.75
2023-05-13T03:38:29.276Z,9.02
2023-05-13T03:40:57.155Z,9.60
2023-05-13T03:43:25.444Z,7.90
2023-05-13T03:45:58.279Z,8.05
2023-05-13T03:48:26.802Z,8.25
2023-05-13T03:50:58.450Z,9.05
2023-05-13T03:53:27.173Z,8.98
2023-05-13T03:55:56.646Z,9.60
2023-05-13T03:58:24.316Z,9.10
2023-05-13T04:00:52.597Z,8.55
2023-05-13T04:03:20.511Z,8.77
2023-05-13T04:05:49.800Z,9.35
2023-05-13T04:08:24.186Z,9.55
2023-05-13T04:10:51.776Z,9.27
2023-05-13T04:13:20.196Z,10.07
2023-05-13T04:15:49.257Z,9.18
2023-05-13T04:18:18.562Z,8.68
2023-05-13T04:20:47.275Z,9.85
2023-05-13T04:23:15.354Z,9.48
2023-05-13T04:25:51.547Z,11.13
2023-05-13T04:28:20.188Z,9.68
2023-05-13T04:30:49.510Z,9.07
2023-05-13T04:33:17.353Z,10.07
2023-05-13T04:35:48.258Z,11.10
2023-05-13T04:38:19.278Z,8.75
2023-05-13T04:40:48.732Z,9.63
2023-05-13T04:43:22.546Z,9.13
2023-05-13T04:45:58.184Z,10.85
2023-05-13T04:48:28.117Z,10.40
2023-05-13T04:50:59.187Z,9.98
2023-05-13T04:53:28.308Z,9.95
2023-05-13T04:56:01.181Z,8.60
2023-05-13T04:58:30.503Z,9.70
2023-05-13T05:00:58.309Z,9.80
2023-05-13T05:03:30.253Z,9.52
2023-05-13T05:05:59.124Z,11.32
2023-05-13T05:08:29.188Z,9.57
2023-05-13T05:13:27.532Z,11.80
2023-05-13T05:15:55.171Z,11.18
2023-05-13T05:18:22.933Z,11.50
2023-05-13T05:20:52.099Z,11.70
2023-05-13T05:23:22.571Z,9.45
2023-05-13T05:25:58.085Z,10.13
2023-05-13T05:28:40.032Z,11.38
2023-05-13T05:31:08.402Z,10.15
2023-05-13T05:33:38.174Z,10.48
2023-05-13T05:36:32.212Z,11.55
2023-05-13T05:39:05.294Z,11.20
2023-05-13T05:41:36.478Z,11.13
2023-05-13T05:44:06.118Z,10.27
2023-05-13T05:46:36.008Z,9.27
2023-05-13T05:49:04.103Z,10.57
2023-05-13T05:51:35.402Z,10.30
2023-05-13T05:54:04.617Z,9.60
2023-05-13T05:56:32.440Z,10.48
2023-05-13T05:59:01.189Z,10.35
2023-05-13T06:01:33.647Z,9.98
2023-05-13T06:04:02.254Z,10.10
2023-05-13T06:06:32.243Z,9.40
2023-05-13T06:09:01.736Z,9.57
2023-05-13T06:11:30.308Z,9.07
2023-05-13T06:14:00.200Z,11.77
2023-05-13T06:16:33.443Z,8.75
2023-05-13T06:19:01.342Z,10.00
2023-05-13T06:21:29.119Z,9.48
2023-05-13T06:24:21.015Z,8.05
2023-05-13T06:26:48.699Z,8.95
2023-05-13T06:29:16.908Z,8.45
2023-05-13T06:31:45.925Z,7.45
2023-05-13T06:34:17.234Z,7.93
2023-05-13T06:36:45.828Z,7.68
2023-05-13T06:39:14.653Z,8.88
2023-05-13T06:41:46.208Z,9.35
2023-05-13T06:44:16.571Z,9.02
2023-05-13T06:46:52.367Z,7.60
2023-05-13T06:49:25.080Z,7.07
2023-05-13T06:51:54.580Z,6.53
2023-05-13T06:54:22.171Z,7.72
2023-05-13T06:56:52.211Z,6.65
2023-05-13T06:59:22.343Z,6.03
2023-05-13T07:01:51.394Z,6.43
2023-05-13T07:04:19.124Z,6.07
2023-05-13T07:06:49.377Z,6.18
2023-05-13T07:09:18.104Z,7.10
2023-05-13T07:11:46.190Z,7.03
2023-05-13T07:14:13.870Z,6.65
2023-05-13T07:16:42.191Z,7.18
2023-05-13T07:19:11.226Z,7.28
2023-05-13T07:21:40.185Z,7.63
2023-05-13T07:24:09.411Z,6.05
2023-05-13T07:26:37.105Z,6.35
2023-05-13T07:29:06.083Z,5.85
2023-05-13T07:31:36.183Z,5.15
2023-05-13T07:34:03.812Z,5.60
2023-05-13T07:36:32.717Z,5.55
2023-05-13T07:39:02.158Z,6.78
2023-05-13T07:44:22.774Z,5.22
2023-05-13T07:46:53.290Z,5.78
2023-05-13T07:49:21.344Z,6.80
2023-05-13T07:51:52.680Z,5.28
2023-05-13T07:54:20.781Z,5.43
2023-05-13T07:56:50.184Z,5.25
2023-05-13T07:59:18.204Z,5.55
2023-05-13T08:01:46.377Z,6.65
2023-05-13T08:04:14.100Z,6.53
2023-05-13T08:06:42.212Z,5.22
2023-05-13T08:09:12.203Z,6.13
2023-05-13T08:11:41.756Z,6.93
2023-05-13T08:14:09.399Z,5.07
2023-05-13T08:16:38.828Z,5.95
2023-05-13T08:19:07.293Z,4.60
2023-05-13T08:21:35.607Z,4.82
2023-05-13T08:24:03.861Z,4.95
2023-05-13T08:26:34.216Z,5.85
2023-05-13T08:29:02.690Z,5.47
2023-05-13T08:31:31.958Z,9.55
2023-05-13T08:34:00.317Z,6.55
2023-05-13T08:36:29.585Z,5.25
2023-05-13T08:39:02.210Z,5.07
2023-05-13T08:41:31.614Z,4.72
2023-05-13T08:44:01.595Z,5.45
2023-05-13T08:46:33.413Z,4.60
2023-05-13T08:49:03.694Z,5.30
2023-05-13T08:51:56.201Z,5.45
2023-05-13T08:54:26.857Z,4.80
2023-05-13T08:56:54.544Z,5.25
2023-05-13T08:59:24.053Z,5.65
2023-05-13T09:01:53.632Z,9.93
2023-05-13T09:04:22.307Z,5.53
2023-05-13T09:06:50.621Z,7.35
2023-05-13T09:09:19.061Z,5.35
2023-05-13T09:11:49.202Z,12.13
2023-05-13T09:14:20.063Z,7.50
2023-05-13T09:16:51.084Z,6.50
2023-05-13T09:19:19.824Z,6.27
2023-05-13T09:21:47.533Z,4.18
2023-05-13T09:24:20.218Z,4.75
2023-05-13T09:26:48.771Z,5.18
2023-05-13T09:29:24.282Z,5.32
2023-05-13T09:31:54.698Z,4.15
2023-05-13T09:34:30.680Z,6.80
2023-05-13T09:37:04.339Z,7.55
2023-05-13T09:39:58.363Z,5.13
2023-05-13T09:42:26.011Z,4.57
2023-05-13T09:44:53.642Z,5.13
2023-05-13T09:47:25.631Z,5.88
2023-05-13T09:49:56.675Z,5.70
2023-05-13T09:52:25.350Z,7.00
2023-05-13T09:54:53.186Z,5.40
2023-05-13T09:57:21.820Z,5.78
2023-05-13T09:59:49.450Z,5.50
2023-05-13T10:05:15.275Z,6.18
2023-05-13T10:07:43.065Z,4.78
2023-05-13T10:10:12.238Z,6.55
2023-05-13T10:12:41.494Z,5.35
2023-05-13T10:15:10.758Z,5.00
2023-05-13T10:17:39.288Z,5.68
2023-05-13T10:20:34.223Z,4.78
2023-05-13T10:23:04.101Z,5.60
2023-05-13T10:25:32.490Z,5.97
2023-05-13T10:28:03.897Z,6.78
2023-05-13T10:30:32.568Z,4.85
2023-05-13T10:33:01.400Z,7.30
2023-05-13T10:35:37.529Z,4.45
2023-05-13T10:38:11.333Z,6.32
2023-05-13T10:40:54.282Z,6.43
2023-05-13T10:43:25.635Z,5.18
2023-05-13T10:45:58.240Z,5.13
2023-05-13T10:48:31.299Z,5.35
2023-05-13T10:51:06.572Z,5.10
2023-05-13T10:53:47.242Z,4.55
2023-05-13T10:56:15.978Z,4.30
2023-05-13T10:58:44.229Z,4.97
2023-05-13T11:01:18.339Z,5.75
2023-05-13T11:03:56.395Z,9.00
2023-05-13T11:06:26.947Z,5.75
2023-05-13T11:08:56.522Z,5.00
2023-05-13T11:11:27.430Z,6.28
2023-05-13T11:13:56.711Z,5.28
2023-05-13T11:16:24.990Z,6.03
2023-05-13T11:18:53.468Z,5.88
2023-05-13T11:21:31.339Z,5.25
2023-05-13T11:24:03.895Z,4.50
2023-05-13T11:26:48.434Z,4.25
2023-05-13T11:29:16.718Z,6.10
2023-05-13T11:31:47.159Z,5.72
2023-05-13T11:34:17.369Z,7.15
2023-05-13T11:36:47.368Z,7.45
2023-05-13T11:39:18.162Z,4.68
2023-05-13T11:41:47.471Z,4.90
2023-05-13T11:44:17.318Z,5.15
2023-05-13T11:46:56.700Z,6.53
2023-05-13T11:49:40.381Z,6.90
2023-05-13T11:52:12.840Z,5.15
2023-05-13T11:54:49.538Z,4.30
2023-05-13T11:57:23.403Z,4.80
2023-05-13T11:59:57.462Z,5.60
2023-05-13T12:02:28.410Z,5.20
2023-05-13T12:04:56.609Z,5.18
2023-05-13T12:07:25.750Z,4.80
2023-05-13T12:09:58.513Z,6.00
2023-05-13T12:12:27.750Z,4.80
2023-05-13T12:14:56.656Z,4.28
2023-05-13T12:17:25.453Z,5.43
2023-05-13T12:20:16.268Z,4.32
2023-05-13T12:22:56.663Z,4.90
2023-05-13T12:25:43.590Z,5.35
2023-05-13T12:28:13.604Z,4.57
2023-05-13T12:30:43.071Z,6.03
2023-05-13T12:33:15.117Z,4.28
2023-05-13T12:35:43.309Z,4.82
2023-05-13T12:38:16.164Z,4.95
2023-05-13T12:40:46.295Z,5.90
2023-05-13T12:43:15.540Z,4.93
2023-05-13T12:45:46.427Z,4.93
2023-05-13T12:48:16.335Z,4.65
2023-05-13T12:50:43.871Z,4.40
2023-05-13T12:53:11.759Z,4.60
2023-05-13T12:56:04.253Z,5.03
2023-05-13T12:58:33.599Z,5.68
2023-05-13T13:01:05.155Z,4.35
2023-05-13T13:03:34.313Z,3.95
2023-05-13T13:06:02.027Z,4.90
2023-05-13T13:08:30.719Z,4.60
2023-05-13T13:11:00.317Z,4.45
2023-05-13T13:13:28.276Z,4.43
2023-05-13T13:15:57.382Z,3.80
2023-05-13T13:18:25.882Z,4.05
2023-05-13T13:20:54.346Z,7.07
2023-05-13T13:23:22.326Z,6.63
2023-05-13T13:25:49.911Z,4.68
2023-05-13T13:28:17.662Z,4.75
2023-05-13T13:31:09.824Z,4.45
2023-05-13T13:36:57.273Z,4.68
2023-05-13T13:39:24.859Z,6.22
2023-05-13T13:41:52.803Z,4.20
2023-05-13T13:44:20.535Z,4.43
2023-05-13T13:46:52.227Z,4.82
2023-05-13T13:49:24.119Z,4.38
2023-05-13T13:51:52.396Z,3.85
2023-05-13T13:54:20.349Z,4.00
2023-05-13T13:56:49.364Z,4.30
2023-05-13T13:59:19.089Z,3.53
2023-05-13T14:02:12.327Z,7.05
2023-05-13T14:04:43.373Z,5.75
2023-05-13T14:07:11.200Z,5.13
2023-05-13T14:09:39.268Z,4.97
2023-05-13T14:12:07.090Z,5.45
2023-05-13T14:14:34.664Z,4.05
2023-05-13T14:17:02.361Z,4.97
2023-05-13T14:19:29.970Z,4.10
2023-05-13T14:21:59.358Z,5.53
2023-05-13T14:24:31.055Z,4.65
2023-05-13T14:26:59.167Z,4.63
2023-05-13T14:29:27.366Z,4.50
2023-05-13T14:31:56.469Z,4.65
2023-05-13T14:34:24.346Z,7.85
2023-05-13T14:36:52.101Z,4.45
2023-05-13T14:39:21.838Z,3.65
2023-05-13T14:41:49.436Z,4.03
2023-05-13T14:44:17.376Z,4.28
2023-05-13T14:46:45.057Z,3.45
2023-05-13T14:49:12.795Z,4.32
2023-05-13T14:51:40.358Z,4.65
2023-05-13T14:54:08.015Z,4.93
2023-05-13T14:56:37.798Z,4.50
2023-05-13T14:59:09.261Z,4.40
2023-05-13T15:01:37.678Z,4.35
2023-05-13T15:04:07.710Z,4.28
2023-05-13T15:06:36.232Z,5.72
2023-05-13T15:09:03.894Z,5.10
2023-05-13T15:11:31.469Z,5.75
2023-05-13T15:14:01.340Z,3.60
2023-05-13T15:16:29.068Z,4.45
2023-05-13T15:18:57.399Z,4.32
2023-05-13T15:21:25.865Z,5.13
2023-05-13T15:23:53.706Z,3.90
2023-05-13T15:26:23.251Z,4.15
2023-05-13T15:28:51.781Z,3.97
2023-05-13T15:31:20.821Z,3.63
2023-05-13T15:33:48.455Z,4.57
2023-05-13T15:36:17.653Z,4.18
2023-05-13T15:38:45.395Z,4.80
2023-05-13T15:41:12.968Z,6.35
2023-05-13T15:46:34.678Z,4.63
2023-05-13T15:49:02.581Z,6.55
2023-05-13T15:51:30.316Z,4.10
2023-05-13T15:53:57.923Z,4.55
2023-05-13T15:56:27.293Z,5.28
2023-05-13T15:58:56.390Z,5.38
2023-05-13T16:01:26.344Z,4.18
2023-05-13T16:03:56.417Z,6.50
2023-05-13T16:06:24.269Z,5.25
2023-05-13T16:08:55.626Z,4.70
2023-05-13T16:11:24.884Z,6.13
2023-05-13T16:13:52.902Z,6.10
2023-05-13T16:16:21.084Z,5.03
2023-05-13T16:18:49.307Z,5.03
2023-05-13T16:21:19.613Z,8.95
2023-05-13T16:23:47.179Z,5.80
2023-05-13T16:26:15.310Z,4.80
2023-05-13T16:28:45.389Z,5.93
2023-05-13T16:31:13.130Z,4.45
2023-05-13T16:33:40.834Z,5.25
2023-05-13T16:36:10.913Z,6.28
2023-05-13T16:38:41.284Z,5.25
2023-05-13T16:41:08.896Z,4.40
2023-05-13T16:43:36.595Z,5.10
2023-05-13T16:46:05.045Z,5.40
2023-05-13T16:48:32.698Z,5.38
2023-05-13T16:51:00.261Z,5.82
2023-05-13T16:53:27.936Z,6.95
2023-05-13T16:55:57.011Z,5.07
2023-05-13T16:58:24.884Z,6.47
2023-05-13T17:00:52.969Z,6.43
2023-05-13T17:03:20.733Z,5.03
2023-05-13T17:05:48.811Z,5.88
2023-05-13T17:08:19.166Z,5.22
2023-05-13T17:10:46.809Z,4.80
2023-05-13T17:13:15.854Z,6.22
2023-05-13T17:15:43.517Z,5.78
2023-05-13T17:18:11.446Z,5.22
2023-05-13T17:20:39.555Z,6.00
2023-05-13T17:23:07.573Z,6.07
2023-05-13T17:25:35.420Z,5.63
2023-05-13T17:28:03.144Z,5.47
2023-05-13T17:30:32.268Z,6.18
2023-05-13T17:32:59.927Z,6.15
2023-05-13T17:35:27.831Z,5.20
2023-05-13T17:37:55.384Z,5.60
2023-05-13T17:40:23.556Z,5.68
2023-05-13T17:42:52.830Z,5.00
2023-05-13T17:45:21.014Z,6.43
2023-05-13T17:47:50.256Z,6.38
2023-05-13T17:50:18.247Z,6.75
2023-05-13T17:52:45.984Z,5.60
2023-05-13T17:55:13.559Z,6.90
2023-05-13T17:57:42.422Z,6.78
2023-05-13T18:00:10.951Z,5.55
2023-05-13T18:02:39.930Z,6.50
2023-05-13T18:05:10.127Z,5.38
2023-05-13T18:07:37.924Z,5.10
2023-05-13T18:10:06.841Z,5.05
2023-05-13T18:12:34.503Z,5.68
2023-05-13T18:15:03.547Z,4.65
2023-05-13T18:17:31.080Z,5.03
2023-05-13T18:20:00.351Z,5.72
2023-05-13T18:22:29.433Z,5.85
2023-05-13T18:24:57.078Z,7.78
2023-05-13T18:27:25.533Z,7.32
2023-05-13T18:29:53.308Z,4.65
2023-05-13T18:32:20.932Z,7.53
2023-05-13T18:34:48.674Z,6.75
2023-05-13T18:37:16.794Z,5.88
2023-05-13T18:39:46.091Z,6.97
2023-05-13T18:42:13.716Z,5.18
2023-05-13T18:44:41.351Z,5.35
2023-05-13T18:47:08.988Z,7.55
2023-05-13T18:49:36.775Z,6.32
2023-05-13T18:52:04.827Z,6.90
2023-05-13T18:54:32.630Z,4.93
2023-05-13T18:57:03.160Z,4.88
2023-05-13T18:59:30.913Z,5.70
2023-05-13T19:01:58.972Z,4.97
2023-05-13T19:04:26.949Z,5.22
2023-05-13T19:06:54.766Z,5.50
2023-05-13T19:09:22.591Z,5.10
2023-05-13T19:11:50.303Z,4.57
2023-05-13T19:14:19.227Z,4.50
2023-05-13T19:16:48.342Z,5.05
2023-05-13T19:19:17.474Z,5.70
2023-05-13T19:21:45.203Z,7.68
2023-05-13T19:24:12.818Z,5.78
2023-05-13T19:26:40.692Z,4.70
2023-05-13T19:29:08.459Z,5.00
2023-05-13T19:31:37.456Z,7.07
2023-05-13T19:34:05.236Z,4.97
2023-05-13T19:36:35.299Z,7.53
2023-05-13T19:39:03.424Z,4.43
2023-05-13T19:41:30.998Z,6.15
2023-05-13T19:43:58.640Z,4.78
2023-05-13T19:46:27.463Z,5.75
2023-05-13T19:48:56.555Z,7.05
2023-05-13T19:51:24.426Z,5.00
2023-05-13T19:53:52.309Z,5.03
2023-05-13T19:56:19.965Z,5.35
2023-05-13T19:58:47.509Z,5.03
2023-05-13T20:01:15.750Z,5.00
2023-05-13T20:03:43.518Z,4.28
2023-05-13T20:06:13.320Z,5.35
2023-05-13T20:08:41.204Z,5.65
2023-05-13T20:11:08.976Z,5.32
2023-05-13T20:13:36.649Z,6.20
2023-05-13T20:16:04.810Z,4.78
2023-05-13T20:18:32.510Z,6.15
2023-05-13T20:21:00.421Z,4.95
2023-05-13T20:23:29.393Z,4.88
2023-05-13T20:25:58.152Z,8.68
2023-05-13T20:28:25.797Z,7.18
2023-05-13T20:30:53.779Z,8.13
2023-05-13T20:33:21.860Z,6.88
2023-05-13T20:35:49.418Z,5.95
2023-05-13T20:38:17.913Z,8.20
2023-05-13T20:40:47.376Z,6.50
2023-05-13T20:43:16.627Z,5.78
2023-05-13T20:45:44.402Z,6.15
2023-05-13T20:48:13.438Z,6.07
2023-05-13T20:50:41.833Z,7.95
2023-05-13T20:53:11.342Z,6.88
2023-05-13T20:55:39.127Z,9.82
2023-05-13T20:58:08.171Z,5.93
2023-05-13T21:00:35.783Z,6.93
2023-05-13T21:03:03.939Z,6.13
2023-05-13T21:05:31.636Z,7.93
2023-05-13T21:07:59.397Z,7.35
2023-05-13T21:10:27.001Z,8.40
2023-05-13T21:12:55.325Z,6.90
2023-05-13T21:15:25.183Z,8.30
2023-05-13T21:17:53.138Z,9.93
2023-05-13T21:20:22.234Z,7.28
2023-05-13T21:22:49.981Z,8.13
2023-05-13T21:25:21.319Z,8.27
2023-05-13T21:27:49.433Z,7.03
2023-05-13T21:30:17.996Z,8.07
2023-05-13T21:32:46.948Z,7.30
2023-05-13T21:35:14.729Z,10.23
2023-05-13T21:37:42.364Z,8.98
2023-05-13T21:40:12.498Z,9.20
2023-05-13T21:42:40.082Z,11.23
2023-05-13T21:45:10.558Z,8.27
2023-05-13T21:47:38.468Z,7.35
2023-05-13T21:50:11.437Z,8.80
2023-05-13T21:52:39.612Z,8.60
2023-05-13T21:55:08.257Z,8.07
2023-05-13T21:57:35.964Z,6.90
2023-05-13T22:00:04.620Z,10.25
2023-05-13T22:02:32.494Z,8.10
2023-05-13T22:05:00.062Z,10.50
2023-05-13T22:07:29.088Z,9.27
2023-05-13T22:09:57.447Z,10.30
2023-05-13T22:12:28.510Z,9.10
2023-05-13T22:14:57.312Z,8.38
2023-05-13T22:17:25.317Z,11.63
2023-05-13T22:19:53.774Z,8.85
2023-05-13T22:22:21.351Z,9.40
2023-05-13T22:24:50.438Z,7.95
2023-05-13T22:27:18.751Z,11.05
2023-05-13T22:29:46.357Z,8.00
2023-05-13T22:32:14.022Z,8.98
2023-05-13T22:34:41.992Z,8.35
2023-05-13T22:37:10.553Z,9.57
2023-05-13T22:39:38.343Z,8.95
2023-05-13T22:42:07.973Z,12.07
2023-05-13T22:44:36.799Z,9.65
2023-05-13T22:47:06.252Z,9.35
2023-05-13T22:49:33.820Z,9.57
2023-05-13T22:52:01.900Z,9.77
2023-05-13T22:54:30.970Z,10.63
2023-05-13T22:56:59.149Z,9.88
2023-05-13T22:59:28.421Z,10.75
2023-05-13T23:01:58.311Z,10.38
2023-05-13T23:04:26.373Z,9.32
2023-05-13T23:06:54.433Z,9.13
2023-05-13T23:09:21.972Z,8.15
2023-05-13T23:11:49.801Z,9.15
2023-05-13T23:14:17.357Z,9.02
2023-05-13T23:16:46.469Z,11.10
2023-05-13T23:19:14.115Z,9.73
2023-05-13T23:21:42.317Z,9.45
2023-05-13T23:24:09.908Z,9.07
2023-05-13T23:26:37.527Z,8.85
2023-05-13T23:29:05.442Z,9.25
2023-05-13T23:31:33.587Z,9.45
2023-05-13T23:34:02.660Z,10.23
2023-05-13T23:36:30.984Z,9.43
2023-05-13T23:38:58.583Z,9.93
2023-05-13T23:41:26.240Z,10.05
2023-05-13T23:43:54.745Z,10.05
2023-05-13T23:46:22.487Z,10.15
2023-05-13T23:48:51.349Z,9.95
2023-05-13T23:51:20.739Z,9.50
2023-05-13T23:53:53.490Z,10.88
2023-05-13T23:56:21.342Z,10.48
2023-05-13T23:58:48.945Z,10.75
